createdAt,value
2019-04-04T00:02:22.282Z,99.90
2019-04-04T00:04:52.474Z,99.90
2019-04-04T00:07:22.961Z,99.90
2019-04-04T00:09:52.446Z,99.90
2019-04-04T00:12:21.628Z,99.90
2019-04-04T00:14:51.260Z,99.90
2019-04-04T00:17:23.024Z,99.90
2019-04-04T00:19:51.886Z,99.90
2019-04-04T00:22:21.147Z,99.90
2019-04-04T00:24:50.376Z,99.90
2019-04-04T00:27:20.282Z,99.90
2019-04-04T00:29:49.618Z,99.90
2019-04-04T00:32:20.686Z,99.90
2019-04-04T00:34:49.747Z,99.90
2019-04-04T00:37:19.049Z,99.90
2019-04-04T00:39:48.242Z,99.90
2019-04-04T00:42:17.946Z,99.90
2019-04-04T00:44:47.132Z,99.90
2019-04-04T00:47:16.664Z,99.90
2019-04-04T00:49:45.896Z,99.90
2019-04-04T00:52:15.157Z,99.90
2019-04-04T00:54:44.892Z,99.90
2019-04-04T00:57:14.720Z,99.90
2019-04-04T00:59:44.333Z,99.90
2019-04-04T01:02:13.561Z,99.90
2019-04-04T01:04:43.064Z,99.90
2019-04-04T01:07:12.571Z,99.90
2019-04-04T01:09:41.768Z,99.90
2019-04-04T01:12:11.284Z,99.90
2019-04-04T01:14:40.541Z,99.90
2019-04-04T01:17:09.782Z,99.90
2019-04-04T01:19:39.306Z,99.90
2019-04-04T01:22:08.537Z,99.90
2019-04-04T01:24:37.801Z,99.90
2019-04-04T01:27:07.065Z,99.90
2019-04-04T01:29:36.413Z,99.90
2019-04-04T01:32:05.957Z,99.90
2019-04-04T01:34:35.120Z,99.90
2019-04-04T01:37:04.652Z,99.90
2019-04-04T01:39:34.013Z,99.90
2019-04-04T01:42:06.792Z,99.90
2019-04-04T01:44:34.244Z,99.90
2019-04-04T01:47:03.409Z,99.90
2019-04-04T01:49:32.896Z,99.90
2019-04-04T01:52:02.138Z,99.90
2019-04-04T01:54:32.031Z,99.90
2019-04-04T01:57:02.352Z,99.90
2019-04-04T01:59:31.620Z,99.90
2019-04-04T02:02:01.432Z,99.90
2019-04-04T02:04:30.707Z,99.90
2019-04-04T02:06:59.996Z,99.90
2019-04-04T02:09:29.668Z,99.90
2019-04-04T02:11:59.006Z,99.90
2019-04-04T02:14:28.529Z,99.90
2019-04-04T02:16:58.064Z,99.90
2019-04-04T02:19:27.673Z,99.90
2019-04-04T02:21:57.876Z,99.90
2019-04-04T02:24:27.813Z,99.90
2019-04-04T02:26:56.975Z,99.90
2019-04-04T02:29:26.326Z,99.90
2019-04-04T02:31:58.375Z,99.90
2019-04-04T02:34:27.852Z,99.90
2019-04-04T02:36:57.367Z,99.90
2019-04-04T02:39:26.809Z,99.90
2019-04-04T02:41:56.287Z,99.90
2019-04-04T02:44:25.453Z,99.90
2019-04-04T02:46:54.992Z,99.90
2019-04-04T02:49:27.951Z,99.90
2019-04-04T02:51:55.110Z,99.90
2019-04-04T02:54:25.630Z,99.90
2019-04-04T02:56:55.454Z,99.90
2019-04-04T02:59:25.100Z,99.90
2019-04-04T03:01:54.448Z,99.90
2019-04-04T03:04:23.812Z,99.90
2019-04-04T03:06:57.189Z,99.90
2019-04-04T03:09:24.007Z,99.90
2019-04-04T03:11:54.665Z,99.90
2019-04-04T03:14:23.961Z,99.90
2019-04-04T03:16:56.344Z,99.90
2019-04-04T03:19:24.474Z,99.90
2019-04-04T03:21:55.950Z,99.90
2019-04-04T03:24:24.726Z,99.90
2019-04-04T03:26:54.289Z,99.90
2019-04-04T03:29:23.777Z,99.90
2019-04-04T03:31:53.069Z,99.90
2019-04-04T03:34:22.321Z,99.90
2019-04-04T03:36:51.610Z,99.90
2019-04-04T03:39:20.865Z,99.90
2019-04-04T03:41:50.460Z,99.90
2019-04-04T03:44:20.766Z,99.90
2019-04-04T03:46:50.104Z,99.90
2019-04-04T03:49:23.232Z,99.90
2019-04-04T03:51:50.549Z,99.90
2019-04-04T03:54:23.545Z,99.90
2019-04-04T03:56:53.343Z,99.90
2019-04-04T03:59:22.889Z,99.90
2019-04-04T04:01:52.199Z,99.90
2019-04-04T04:04:21.441Z,99.90
2019-04-04T04:06:50.873Z,99.90
2019-04-04T04:09:20.341Z,99.90
2019-04-04T04:11:49.581Z,99.90
2019-04-04T04:14:21.664Z,99.90
2019-04-04T04:16:49.684Z,99.90
2019-04-04T04:19:18.912Z,99.90
2019-04-04T04:21:48.125Z,99.90
2019-04-04T04:24:17.290Z,99.90
2019-04-04T04:26:47.187Z,99.90
2019-04-04T04:29:16.510Z,99.90
2019-04-04T04:31:49.341Z,99.90
2019-04-04T04:34:16.991Z,99.90
2019-04-04T04:36:48.079Z,99.90
2019-04-04T04:39:17.496Z,99.90
2019-04-04T04:41:46.804Z,99.90
2019-04-04T04:44:16.381Z,99.90
2019-04-04T04:46:49.726Z,99.90
2019-04-04T04:49:17.161Z,99.90
2019-04-04T04:51:46.711Z,99.90
2019-04-04T04:54:15.877Z,99.90
2019-04-04T04:56:45.350Z,99.90
2019-04-04T04:59:14.533Z,99.90
2019-04-04T05:01:43.710Z,99.90
2019-04-04T05:04:13.020Z,99.90
2019-04-04T05:06:42.546Z,99.90
2019-04-04T05:09:13.670Z,99.90
2019-04-04T05:11:43.266Z,99.90
2019-04-04T05:14:12.435Z,99.90
2019-04-04T05:16:42.377Z,99.90
2019-04-04T05:19:11.894Z,99.90
2019-04-04T05:21:41.416Z,99.90
2019-04-04T05:24:10.676Z,99.90
2019-04-04T05:26:39.926Z,99.90
2019-04-04T05:29:09.237Z,99.90
2019-04-04T05:31:38.805Z,99.90
2019-04-04T05:34:08.307Z,99.90
2019-04-04T05:36:37.673Z,99.90
2019-04-04T05:39:08.153Z,99.90
2019-04-04T05:41:37.830Z,99.90
2019-04-04T05:44:09.068Z,99.90
2019-04-04T05:46:38.009Z,99.90
2019-04-04T05:49:08.297Z,99.90
2019-04-04T05:51:37.799Z,99.90
2019-04-04T05:54:07.507Z,99.90
2019-04-04T05:56:37.947Z,99.90
2019-04-04T05:59:07.679Z,99.90
2019-04-04T06:01:36.974Z,99.90
2019-04-04T06:04:06.237Z,99.90
2019-04-04T06:06:35.543Z,99.90
2019-04-04T06:09:06.970Z,99.90
2019-04-04T06:11:36.553Z,99.90
2019-04-04T06:14:05.813Z,99.90
2019-04-04T06:16:35.649Z,99.90
2019-04-04T06:19:04.990Z,99.90
2019-04-04T06:21:34.136Z,99.90
2019-04-04T06:24:03.328Z,99.90
2019-04-04T06:26:32.935Z,99.90
2019-04-04T06:29:02.267Z,99.90
2019-04-04T06:31:31.719Z,99.90
2019-04-04T06:34:01.257Z,99.90
2019-04-04T06:36:30.513Z,99.90
2019-04-04T06:38:59.781Z,99.90
2019-04-04T06:41:32.019Z,99.90
2019-04-04T06:43:59.965Z,99.90
2019-04-04T06:46:29.323Z,99.90
2019-04-04T06:48:58.635Z,99.90
2019-04-04T06:51:27.904Z,99.90
2019-04-04T06:53:59.447Z,99.90
2019-04-04T06:56:31.829Z,99.90
2019-04-04T06:58:59.644Z,99.90
2019-04-04T07:01:29.171Z,99.90
2019-04-04T07:03:59.511Z,99.90
2019-04-04T07:06:29.380Z,99.90
2019-04-04T07:08:59.058Z,99.90
2019-04-04T07:11:28.354Z,99.90
2019-04-04T07:13:59.205Z,99.90
2019-04-04T07:16:28.711Z,99.90
2019-04-04T07:18:57.958Z,99.90
2019-04-04T07:21:27.171Z,99.90
2019-04-04T07:23:58.953Z,99.90
2019-04-04T07:26:28.034Z,99.90
2019-04-04T07:28:57.608Z,99.90
2019-04-04T07:31:26.907Z,99.90
2019-04-04T07:33:56.073Z,99.90
2019-04-04T07:36:25.679Z,99.90
2019-04-04T07:38:55.293Z,99.90
2019-04-04T07:41:24.889Z,99.90
2019-04-04T07:43:54.166Z,99.90
2019-04-04T07:46:23.365Z,99.90
2019-04-04T07:48:55.240Z,99.90
2019-04-04T07:51:24.481Z,99.90
2019-04-04T07:53:53.758Z,99.90
2019-04-04T07:56:23.306Z,99.90
2019-04-04T07:58:52.608Z,99.90
2019-04-04T08:01:21.936Z,99.90
2019-04-04T08:03:53.566Z,99.90
2019-04-04T08:06:22.947Z,99.90
2019-04-04T08:08:52.709Z,99.90
2019-04-04T08:11:22.302Z,99.90
2019-04-04T08:13:51.591Z,99.90
2019-04-04T08:16:20.869Z,99.90
2019-04-04T08:18:50.965Z,99.90
2019-04-04T08:21:20.535Z,99.90
2019-04-04T08:23:50.129Z,99.90
2019-04-04T08:26:19.367Z,99.90
2019-04-04T08:28:49.189Z,99.90
2019-04-04T08:31:19.165Z,99.90
2019-04-04T08:33:48.459Z,99.90
2019-04-04T08:36:17.621Z,99.90
2019-04-04T08:38:46.761Z,99.90
2019-04-04T08:41:16.122Z,99.90
2019-04-04T08:43:45.399Z,99.90
2019-04-04T08:46:14.781Z,99.90
2019-04-04T08:48:44.451Z,99.50
2019-04-04T08:51:13.661Z,99.00
2019-04-04T08:53:42.844Z,99.70
2019-04-04T08:56:12.543Z,98.70
2019-04-04T08:58:42.133Z,99.10
2019-04-04T09:01:11.475Z,99.10
2019-04-04T09:03:40.647Z,98.80
2019-04-04T09:06:09.933Z,99.00
2019-04-04T09:08:39.138Z,98.20
2019-04-04T09:11:08.782Z,98.50
2019-04-04T09:13:38.345Z,97.50
2019-04-04T09:16:07.651Z,97.00
2019-04-04T09:18:36.835Z,97.80
2019-04-04T09:21:06.013Z,96.90
2019-04-04T09:23:35.352Z,94.90
2019-04-04T09:26:05.888Z,94.20
2019-04-04T09:28:35.675Z,94.90
2019-04-04T09:31:04.905Z,93.00
2019-04-04T09:33:34.159Z,92.70
2019-04-04T09:36:03.859Z,93.60
2019-04-04T09:38:33.046Z,92.60
2019-04-04T09:41:02.292Z,93.00
2019-04-04T09:43:31.577Z,91.10
2019-04-04T09:46:00.838Z,90.50
2019-04-04T09:48:30.367Z,88.40
2019-04-04T09:50:59.636Z,86.50
2019-04-04T09:53:28.894Z,82.60
2019-04-04T09:55:58.475Z,83.80
2019-04-04T09:58:27.716Z,81.70
2019-04-04T10:00:57.001Z,80.70
2019-04-04T10:03:26.189Z,81.60
2019-04-04T10:05:55.697Z,81.50
2019-04-04T10:08:24.868Z,74.60
2019-04-04T10:10:54.373Z,73.70
2019-04-04T10:13:23.965Z,66.60
2019-04-04T10:15:53.234Z,67.20
2019-04-04T10:18:22.815Z,69.40
2019-04-04T10:20:52.167Z,65.30
2019-04-04T10:23:21.441Z,67.00
2019-04-04T10:25:51.110Z,65.70
2019-04-04T10:28:23.186Z,66.10
2019-04-04T10:30:51.515Z,66.00
2019-04-04T10:33:21.138Z,62.50
2019-04-04T10:35:50.389Z,59.40
2019-04-04T10:38:19.623Z,58.50
2019-04-04T10:40:48.815Z,59.50
2019-04-04T10:43:18.362Z,61.90
2019-04-04T10:45:47.686Z,62.40
2019-04-04T10:48:16.963Z,57.90
2019-04-04T10:50:46.290Z,57.50
2019-04-04T10:53:15.887Z,61.00
2019-04-04T10:55:45.570Z,64.30
2019-04-04T10:58:14.973Z,59.80
2019-04-04T11:00:44.169Z,58.80
2019-04-04T11:03:13.448Z,60.60
2019-04-04T11:05:42.689Z,62.40
2019-04-04T11:08:12.477Z,61.40
2019-04-04T11:10:41.871Z,61.70
2019-04-04T11:13:11.134Z,60.00
2019-04-04T11:15:40.321Z,60.30
2019-04-04T11:18:09.866Z,59.00
2019-04-04T11:20:39.128Z,61.90
2019-04-04T11:23:08.777Z,68.10
2019-04-04T11:25:38.040Z,62.30
2019-04-04T11:28:07.296Z,65.90
2019-04-04T11:30:36.792Z,63.70
2019-04-04T11:33:06.080Z,61.80
2019-04-04T11:35:35.662Z,62.50
2019-04-04T11:38:04.942Z,63.00
2019-04-04T11:40:34.267Z,59.30
2019-04-04T11:43:04.162Z,59.90
2019-04-04T11:45:33.421Z,59.70
2019-04-04T11:48:02.672Z,57.60
2019-04-04T11:50:32.297Z,57.20
2019-04-04T11:53:01.613Z,56.80
2019-04-04T11:55:30.864Z,56.60
2019-04-04T11:58:00.338Z,54.30
2019-04-04T12:00:32.355Z,52.90
2019-04-04T12:03:01.842Z,54.60
2019-04-04T12:05:31.084Z,52.20
2019-04-04T12:08:00.272Z,49.00
2019-04-04T12:10:29.565Z,50.90
2019-04-04T12:12:59.037Z,50.10
2019-04-04T12:15:28.277Z,52.20
2019-04-04T12:17:57.513Z,55.30
2019-04-04T12:20:26.857Z,54.70
2019-04-04T12:22:56.429Z,53.90
2019-04-04T12:25:26.080Z,54.80
2019-04-04T12:27:55.384Z,53.20
2019-04-04T12:30:24.555Z,50.70
2019-04-04T12:32:54.060Z,49.50
2019-04-04T12:35:23.703Z,48.60
2019-04-04T12:37:53.280Z,46.10
2019-04-04T12:40:22.891Z,50.20
2019-04-04T12:42:52.438Z,50.30
2019-04-04T12:45:29.364Z,52.90
2019-04-04T12:47:58.613Z,51.00
2019-04-04T12:50:27.802Z,48.30
2019-04-04T12:52:57.137Z,47.20
2019-04-04T12:55:26.408Z,46.10
2019-04-04T12:57:55.958Z,46.60
2019-04-04T13:00:25.116Z,46.00
2019-04-04T13:02:54.665Z,44.50
2019-04-04T13:05:24.232Z,44.30
2019-04-04T13:07:53.520Z,45.50
2019-04-04T13:10:32.514Z,48.50
2019-04-04T13:12:54.054Z,51.80
2019-04-04T13:15:23.389Z,51.30
2019-04-04T13:17:52.658Z,49.40
2019-04-04T13:20:22.008Z,49.90
2019-04-04T13:22:51.196Z,47.90
2019-04-04T13:25:20.443Z,49.00
2019-04-04T13:27:50.003Z,49.30
2019-04-04T13:30:19.527Z,51.80
2019-04-04T13:32:51.655Z,52.60
2019-04-04T13:35:21.220Z,51.40
2019-04-04T13:37:50.457Z,51.30
2019-04-04T13:40:20.408Z,49.80
2019-04-04T13:42:52.730Z,48.80
2019-04-04T13:45:24.763Z,44.90
2019-04-04T13:47:52.076Z,44.00
2019-04-04T13:50:21.324Z,47.20
2019-04-04T13:52:50.891Z,48.40
2019-04-04T13:55:20.054Z,48.50
2019-04-04T13:57:49.431Z,48.30
2019-04-04T14:00:25.411Z,46.40
2019-04-04T14:02:54.859Z,46.30
2019-04-04T14:05:24.670Z,45.50
2019-04-04T14:07:54.022Z,45.20
2019-04-04T14:10:23.649Z,44.80
2019-04-04T14:12:52.955Z,47.20
2019-04-04T14:15:22.507Z,46.70
2019-04-04T14:17:51.787Z,45.20
2019-04-04T14:20:20.973Z,43.60
2019-04-04T14:22:51.481Z,43.60
2019-04-04T14:25:21.304Z,45.50
2019-04-04T14:27:50.612Z,47.60
2019-04-04T14:30:20.228Z,46.40
2019-04-04T14:32:49.467Z,46.30
2019-04-04T14:35:18.745Z,45.10
2019-04-04T14:37:48.505Z,47.90
2019-04-04T14:40:17.790Z,51.10
2019-04-04T14:42:46.959Z,52.40
2019-04-04T14:45:16.205Z,52.30
2019-04-04T14:47:46.041Z,52.00
2019-04-04T14:50:16.461Z,51.80
2019-04-04T14:52:46.041Z,51.50
2019-04-04T14:55:17.753Z,50.90
2019-04-04T14:57:47.077Z,50.90
2019-04-04T15:00:17.103Z,51.20
2019-04-04T15:02:46.713Z,51.20
2019-04-04T15:05:15.977Z,51.00
2019-04-04T15:07:45.120Z,51.20
2019-04-04T15:10:14.344Z,51.80
2019-04-04T15:12:43.499Z,52.50
2019-04-04T15:15:12.899Z,52.30
2019-04-04T15:17:42.569Z,52.10
2019-04-04T15:20:11.913Z,51.80
2019-04-04T15:22:41.191Z,51.00
2019-04-04T15:25:10.347Z,50.80
2019-04-04T15:27:39.609Z,49.30
2019-04-04T15:30:09.357Z,49.60
2019-04-04T15:32:38.625Z,50.60
2019-04-04T15:35:08.191Z,50.50
2019-04-04T15:37:37.762Z,51.70
2019-04-04T15:40:08.500Z,51.00
2019-04-04T15:42:37.748Z,51.20
2019-04-04T15:45:07.239Z,51.90
2019-04-04T15:47:36.433Z,53.20
2019-04-04T15:50:06.103Z,52.80
2019-04-04T15:52:35.349Z,54.20
2019-04-04T15:55:04.693Z,54.40
2019-04-04T15:57:34.224Z,54.40
2019-04-04T16:00:04.072Z,54.20
2019-04-04T16:02:33.358Z,53.50
2019-04-04T16:05:02.979Z,53.00
2019-04-04T16:07:32.623Z,53.30
2019-04-04T16:10:02.491Z,52.80
2019-04-04T16:12:31.703Z,52.00
2019-04-04T16:15:00.975Z,51.40
2019-04-04T16:17:30.261Z,51.90
2019-04-04T16:19:59.881Z,52.60
2019-04-04T16:22:29.274Z,53.30
2019-04-04T16:24:58.806Z,54.20
2019-04-04T16:27:28.318Z,54.60
2019-04-04T16:29:57.583Z,55.00
2019-04-04T16:32:26.783Z,55.70
2019-04-04T16:34:56.143Z,55.50
2019-04-04T16:37:25.383Z,56.10
2019-04-04T16:40:07.849Z,56.50
2019-04-04T16:42:26.885Z,56.60
2019-04-04T16:44:56.475Z,57.20
2019-04-04T16:47:26.079Z,57.80
2019-04-04T16:49:55.306Z,58.10
2019-04-04T16:52:24.499Z,58.80
2019-04-04T16:54:53.986Z,58.60
2019-04-04T16:57:23.567Z,59.00
2019-04-04T16:59:53.066Z,59.40
2019-04-04T17:02:22.300Z,59.90
2019-04-04T17:04:51.815Z,60.40
2019-04-04T17:07:21.296Z,59.70
2019-04-04T17:09:50.557Z,59.50
2019-04-04T17:12:31.645Z,59.20
2019-04-04T17:15:09.418Z,59.00
2019-04-04T17:17:45.499Z,59.20
2019-04-04T17:20:16.011Z,60.80
2019-04-04T17:22:45.237Z,61.40
2019-04-04T17:25:16.145Z,62.10
2019-04-04T17:27:45.458Z,62.20
2019-04-04T17:30:16.080Z,62.60
2019-04-04T17:32:47.968Z,63.30
2019-04-04T17:35:16.691Z,64.70
2019-04-04T17:37:46.932Z,65.70
2019-04-04T17:40:37.944Z,66.40
2019-04-04T17:43:07.207Z,66.60
2019-04-04T17:45:36.946Z,67.50
2019-04-04T17:48:06.209Z,69.00
2019-04-04T17:50:35.736Z,70.00
2019-04-04T17:53:05.716Z,70.50
2019-04-04T17:55:34.953Z,71.30
2019-04-04T17:58:04.753Z,71.90
2019-04-04T18:00:34.323Z,73.20
2019-04-04T18:03:03.600Z,74.90
2019-04-04T18:05:32.837Z,75.00
2019-04-04T18:08:02.027Z,75.80
2019-04-04T18:10:31.260Z,77.30
2019-04-04T18:13:00.439Z,77.90
2019-04-04T18:15:29.599Z,78.50
2019-04-04T18:17:58.821Z,79.30
2019-04-04T18:20:28.058Z,80.30
2019-04-04T18:22:57.331Z,80.60
2019-04-04T18:25:26.791Z,82.30
2019-04-04T18:27:56.298Z,81.90
2019-04-04T18:30:25.557Z,84.40
2019-04-04T18:32:54.750Z,83.90
2019-04-04T18:35:24.409Z,85.80
2019-04-04T18:37:54.421Z,87.20
2019-04-04T18:40:23.680Z,86.80
2019-04-04T18:42:53.906Z,87.60
2019-04-04T18:45:23.510Z,89.90
2019-04-04T18:47:53.322Z,90.50
2019-04-04T18:50:23.175Z,90.30
2019-04-04T18:52:52.368Z,90.50
2019-04-04T18:55:21.549Z,90.60
2019-04-04T18:57:51.038Z,90.50
2019-04-04T19:00:20.220Z,90.90
2019-04-04T19:02:50.103Z,91.20
2019-04-04T19:05:20.092Z,91.10
2019-04-04T19:07:49.252Z,91.40
2019-04-04T19:10:19.268Z,91.50
2019-04-04T19:12:48.493Z,91.30
2019-04-04T19:15:17.872Z,91.70
2019-04-04T19:17:47.076Z,91.70
2019-04-04T19:20:16.893Z,91.70
2019-04-04T19:22:46.092Z,92.20
2019-04-04T19:25:15.498Z,92.30
2019-04-04T19:27:45.009Z,92.40
2019-04-04T19:30:16.201Z,92.90
2019-04-04T19:32:45.762Z,93.00
2019-04-04T19:35:16.229Z,93.00
2019-04-04T19:37:45.474Z,93.20
2019-04-04T19:40:16.457Z,93.20
2019-04-04T19:42:45.638Z,93.10
2019-04-04T19:45:15.497Z,93.00
2019-04-04T19:47:44.854Z,93.10
2019-04-04T19:50:14.720Z,93.60
2019-04-04T19:52:43.914Z,93.90
2019-04-04T19:55:13.840Z,93.80
2019-04-04T19:57:43.427Z,93.70
2019-04-04T20:00:13.940Z,93.90
2019-04-04T20:02:44.229Z,93.60
2019-04-04T20:05:14.073Z,93.60
2019-04-04T20:07:43.251Z,93.90
2019-04-04T20:10:12.650Z,94.20
2019-04-04T20:12:41.953Z,94.20
2019-04-04T20:15:11.908Z,94.30
2019-04-04T20:17:41.488Z,94.70
2019-04-04T20:20:10.883Z,94.60
2019-04-04T20:22:40.750Z,95.20
2019-04-04T20:25:10.041Z,95.20
2019-04-04T20:27:39.567Z,95.30
2019-04-04T20:30:09.775Z,95.50
2019-04-04T20:32:39.020Z,95.40
2019-04-04T20:35:08.666Z,95.50
2019-04-04T20:37:38.332Z,95.60
2019-04-04T20:40:08.705Z,95.90
2019-04-04T20:42:37.910Z,95.70
2019-04-04T20:45:09.074Z,95.80
2019-04-04T20:47:38.261Z,95.90
2019-04-04T20:50:07.453Z,95.90
2019-04-04T20:52:36.612Z,96.00
2019-04-04T20:55:05.989Z,96.10
2019-04-04T20:57:35.242Z,96.10
2019-04-04T21:00:05.198Z,96.30
2019-04-04T21:02:34.432Z,96.40
2019-04-04T21:05:03.937Z,96.30
2019-04-04T21:07:33.295Z,96.50
2019-04-04T21:10:02.674Z,96.50
2019-04-04T21:12:31.841Z,96.50
2019-04-04T21:15:01.538Z,96.40
2019-04-04T21:17:31.287Z,96.70
2019-04-04T21:20:00.973Z,96.70
2019-04-04T21:22:30.196Z,96.70
2019-04-04T21:24:59.571Z,97.00
2019-04-04T21:27:28.801Z,97.20
2019-04-04T21:29:58.015Z,97.20
2019-04-04T21:32:27.515Z,97.30
2019-04-04T21:34:56.761Z,97.30
2019-04-04T21:37:26.212Z,97.00
2019-04-04T21:39:55.671Z,97.30
2019-04-04T21:42:25.254Z,97.40
2019-04-04T21:44:54.826Z,97.50
2019-04-04T21:47:24.269Z,97.60
2019-04-04T21:49:53.477Z,97.70
2019-04-04T21:52:22.649Z,97.80
2019-04-04T21:54:52.539Z,97.80
2019-04-04T21:57:22.083Z,97.90
2019-04-04T21:59:51.371Z,98.30
2019-04-04T22:02:21.170Z,98.40
2019-04-04T22:04:50.569Z,98.60
2019-04-04T22:07:20.016Z,98.50
2019-04-04T22:09:49.430Z,98.50
2019-04-04T22:12:18.917Z,98.60
2019-04-04T22:14:48.325Z,98.80
2019-04-04T22:17:18.070Z,99.10
2019-04-04T22:19:47.511Z,99.10
2019-04-04T22:22:17.206Z,99.30
2019-04-04T22:24:46.544Z,99.40
2019-04-04T22:27:15.946Z,99.60
2019-04-04T22:29:45.269Z,99.80
2019-04-04T22:32:14.872Z,99.80
2019-04-04T22:34:44.486Z,99.90
2019-04-04T22:37:13.788Z,99.90
2019-04-04T22:39:43.153Z,99.90
2019-04-04T22:42:12.816Z,99.90
2019-04-04T22:44:42.090Z,99.90
2019-04-04T22:47:11.372Z,99.90
2019-04-04T22:49:40.651Z,99.90
2019-04-04T22:52:10.490Z,99.90
2019-04-04T22:54:40.100Z,99.90
2019-04-04T22:57:09.746Z,99.90
2019-04-04T22:59:39.374Z,99.90
2019-04-04T23:02:09.334Z,99.90
2019-04-04T23:04:38.950Z,99.90
2019-04-04T23:07:08.768Z,99.90
2019-04-04T23:09:38.773Z,99.90
2019-04-04T23:12:08.412Z,99.90
2019-04-04T23:14:47.890Z,99.90
2019-04-04T23:17:09.300Z,99.90
2019-04-04T23:19:38.972Z,99.90
2019-04-04T23:22:08.616Z,99.90
2019-04-04T23:24:38.561Z,99.90
2019-04-04T23:27:08.205Z,99.90
2019-04-04T23:29:37.835Z,99.90
2019-04-04T23:32:07.458Z,99.90
2019-04-04T23:34:37.074Z,99.90
2019-04-04T23:37:07.148Z,99.90
2019-04-04T23:39:37.114Z,99.90
2019-04-04T23:42:06.754Z,99.90
2019-04-04T23:44:36.772Z,99.90
2019-04-04T23:47:06.880Z,99.90
2019-04-04T23:49:36.897Z,99.90
2019-04-04T23:52:06.537Z,99.90
2019-04-04T23:54:36.170Z,99.90
2019-04-04T23:57:05.814Z,99.90
2019-04-04T23:59:35.447Z,99.90
